createdAt,value
2024-01-27T00:01:59.199Z,101376.81
2024-01-27T00:07:01.048Z,101366.66
2024-01-27T00:12:02.914Z,101383.72
2024-01-27T00:17:04.584Z,101386.00
2024-01-27T00:22:06.620Z,101387.41
2024-01-27T00:27:08.344Z,101379.34
2024-01-27T00:32:10.027Z,101385.75
2024-01-27T00:37:11.640Z,101398.47
2024-01-27T00:42:13.557Z,101394.94
2024-01-27T00:47:15.255Z,101408.88
2024-01-27T00:52:16.843Z,101419.25
2024-01-27T00:57:18.504Z,101409.88
2024-01-27T01:02:20.224Z,101423.81
2024-01-27T01:07:21.851Z,101437.84
2024-01-27T01:12:23.662Z,101439.47
2024-01-27T01:17:25.390Z,101449.31
2024-01-27T01:22:27.000Z,101444.94
2024-01-27T01:27:28.751Z,101448.97
2024-01-27T01:32:30.383Z,101462.31
2024-01-27T01:37:32.357Z,101472.91
2024-01-27T01:42:34.069Z,101461.72
2024-01-27T01:47:35.824Z,101462.13
2024-01-27T01:52:38.458Z,101461.72
2024-01-27T01:57:40.150Z,101470.94
2024-01-27T02:02:44.678Z,101471.59
2024-01-27T02:07:46.267Z,101467.41
2024-01-27T02:12:47.946Z,101472.94
2024-01-27T02:17:49.676Z,101478.72
2024-01-27T02:22:51.329Z,101490.31
2024-01-27T02:27:53.319Z,101483.00
2024-01-27T02:32:58.577Z,101472.75
2024-01-27T02:38:00.241Z,101461.56
2024-01-27T02:43:02.160Z,101473.59
2024-01-27T02:48:04.430Z,101487.16
2024-01-27T02:53:06.149Z,101488.78
2024-01-27T02:58:07.814Z,101494.13
2024-01-27T03:03:09.556Z,101502.47
2024-01-27T03:08:11.415Z,101508.25
2024-01-27T03:13:13.062Z,101514.53
2024-01-27T03:18:14.824Z,101536.75
2024-01-27T03:23:16.473Z,101529.72
2024-01-27T03:28:18.092Z,101539.41
2024-01-27T03:33:19.855Z,101551.28
2024-01-27T03:38:21.533Z,101543.22
2024-01-27T03:43:23.146Z,101553.22
2024-01-27T03:48:25.327Z,101555.81
2024-01-27T03:53:26.981Z,101552.50
2024-01-27T03:58:28.590Z,101553.91
2024-01-27T04:03:30.257Z,101559.38
2024-01-27T04:08:31.975Z,101567.56
2024-01-27T04:13:33.589Z,101575.13
2024-01-27T04:18:35.344Z,101563.47
2024-01-27T04:23:37.131Z,101577.97
2024-01-27T04:28:38.795Z,101576.97
2024-01-27T04:33:40.712Z,101576.19
2024-01-27T04:38:44.670Z,101587.75
2024-01-27T04:43:46.275Z,101596.72
2024-01-27T04:48:48.388Z,101596.53
2024-01-27T04:53:51.673Z,101585.88
2024-01-27T04:58:53.438Z,101590.81
2024-01-27T05:03:55.205Z,101585.22
2024-01-27T05:08:57.079Z,101607.03
2024-01-27T05:13:59.969Z,101607.75
2024-01-27T05:19:01.713Z,101608.72
2024-01-27T05:24:03.556Z,101616.25
2024-01-27T05:29:05.286Z,101622.72
2024-01-27T05:34:07.067Z,101632.75
2024-01-27T05:39:09.492Z,101643.56
2024-01-27T05:44:11.117Z,101643.63
2024-01-27T05:49:12.930Z,101651.78
2024-01-27T05:54:17.743Z,101661.47
2024-01-27T05:59:19.663Z,101669.19
2024-01-27T06:04:21.302Z,101663.69
2024-01-27T06:09:23.110Z,101659.75
2024-01-27T06:14:24.921Z,101672.00
2024-01-27T06:19:26.724Z,101668.44
2024-01-27T06:24:28.481Z,101673.41
2024-01-27T06:29:30.270Z,101679.72
2024-01-27T06:34:33.414Z,101686.56
2024-01-27T06:39:35.230Z,101697.94
2024-01-27T06:44:36.869Z,101703.81
2024-01-27T06:49:38.759Z,101717.72
2024-01-27T06:54:44.999Z,101719.66
2024-01-27T06:59:53.451Z,101725.94
2024-01-27T07:04:55.843Z,101724.19
2024-01-27T07:09:58.251Z,101732.38
2024-01-27T07:15:01.021Z,101747.09
2024-01-27T07:20:03.003Z,101766.09
2024-01-27T07:25:05.134Z,101767.88
2024-01-27T07:30:09.738Z,101774.66
2024-01-27T07:35:11.570Z,101777.69
2024-01-27T07:40:13.536Z,101779.56
2024-01-27T07:45:16.079Z,101770.38
2024-01-27T07:50:17.896Z,101774.41
2024-01-27T07:55:19.472Z,101772.19
2024-01-27T08:00:21.344Z,101783.69
2024-01-27T08:05:23.025Z,101788.47
2024-01-27T08:10:24.818Z,101798.59
2024-01-27T08:15:26.508Z,101792.84
2024-01-27T08:20:28.137Z,101800.66
2024-01-27T08:25:29.812Z,101800.50
2024-01-27T08:30:31.533Z,101815.41
2024-01-27T08:35:33.302Z,101821.94
2024-01-27T08:40:35.292Z,101812.34
2024-01-27T08:45:38.948Z,101825.00
2024-01-27T08:50:40.680Z,101843.72
2024-01-27T08:55:42.550Z,101852.38
2024-01-27T09:00:44.278Z,101856.97
2024-01-27T09:05:46.376Z,101876.66
2024-01-27T09:10:48.047Z,101879.44
2024-01-27T09:15:49.840Z,101884.75
2024-01-27T09:20:51.586Z,101884.31
2024-01-27T09:25:53.260Z,101884.06
2024-01-27T09:30:55.119Z,101897.09
2024-01-27T09:35:56.872Z,101889.31
2024-01-27T09:40:58.540Z,101888.50
2024-01-27T09:46:00.593Z,101892.09
2024-01-27T09:51:03.682Z,101888.16
2024-01-27T09:56:05.672Z,101883.63
2024-01-27T10:01:08.210Z,101896.81
2024-01-27T10:06:10.964Z,101892.75
2024-01-27T10:11:15.174Z,101899.81
2024-01-27T10:16:16.838Z,101886.28
2024-01-27T10:21:19.677Z,101894.13
2024-01-27T10:26:21.355Z,101874.22
2024-01-27T10:31:29.981Z,101886.06
2024-01-27T10:36:42.264Z,101887.72
2024-01-27T10:41:47.422Z,101885.00
2024-01-27T10:46:50.315Z,101895.47
2024-01-27T10:51:59.729Z,101890.94
2024-01-27T10:57:03.112Z,101910.59
2024-01-27T11:02:05.716Z,101909.47
2024-01-27T11:07:08.326Z,101897.25
2024-01-27T11:12:10.381Z,101911.94
2024-01-27T11:17:12.174Z,101916.03
2024-01-27T11:22:30.065Z,101912.63
2024-01-27T11:27:31.789Z,101912.66
2024-01-27T11:32:34.017Z,101917.69
2024-01-27T11:37:36.413Z,101910.28
2024-01-27T11:42:38.127Z,101924.81
2024-01-27T11:47:39.852Z,101921.19
2024-01-27T11:52:41.556Z,101918.97
2024-01-27T11:57:43.479Z,101918.22
2024-01-27T12:02:45.192Z,101916.09
2024-01-27T12:07:46.939Z,101906.38
2024-01-27T12:12:48.587Z,101909.13
2024-01-27T12:17:52.705Z,101912.09
2024-01-27T12:23:07.385Z,101914.72
2024-01-27T12:28:09.907Z,101921.47
2024-01-27T12:33:13.427Z,101935.28
2024-01-27T12:38:15.156Z,101935.19
2024-01-27T12:43:16.851Z,101935.47
2024-01-27T12:48:18.523Z,101929.66
2024-01-27T12:53:20.286Z,101924.53
2024-01-27T12:58:21.940Z,101918.75
2024-01-27T13:03:23.681Z,101913.00
2024-01-27T13:08:26.088Z,101929.56
2024-01-27T13:13:27.888Z,101936.81
2024-01-27T13:18:29.711Z,101930.41
2024-01-27T13:23:31.533Z,101931.50
2024-01-27T13:28:33.360Z,101928.44
2024-01-27T13:33:36.588Z,101937.41
2024-01-27T13:38:38.850Z,101946.81
2024-01-27T13:43:40.769Z,101949.00
2024-01-27T13:48:43.259Z,101955.75
2024-01-27T13:53:47.652Z,101953.19
2024-01-27T13:58:50.040Z,101946.50
2024-01-27T14:03:52.133Z,101946.13
2024-01-27T14:08:53.925Z,101942.53
2024-01-27T14:13:56.837Z,101949.59
2024-01-27T14:18:58.665Z,101940.44
2024-01-27T14:24:07.497Z,101942.31
2024-01-27T14:29:09.157Z,101944.03
2024-01-27T14:34:11.168Z,101949.19
2024-01-27T14:39:13.204Z,101942.13
2024-01-27T14:44:15.037Z,101943.25
2024-01-27T14:49:17.292Z,101951.25
2024-01-27T14:54:21.199Z,101956.38
2024-01-27T14:59:23.129Z,101965.13
2024-01-27T15:04:27.861Z,101978.38
2024-01-27T15:09:29.596Z,101972.28
2024-01-27T15:14:32.956Z,101973.72
2024-01-27T15:19:40.578Z,101980.78
2024-01-27T15:24:43.185Z,101989.25
2024-01-27T15:29:44.940Z,102005.59
2024-01-27T15:34:46.693Z,102011.09
2024-01-27T15:39:48.548Z,102017.63
2024-01-27T15:44:50.203Z,102018.31
2024-01-27T15:49:57.978Z,102030.69
2024-01-27T15:55:00.198Z,102037.41
2024-01-27T16:00:01.977Z,102051.69
2024-01-27T16:05:06.682Z,102055.47
2024-01-27T16:10:08.635Z,102055.97
2024-01-27T16:15:10.858Z,102042.75
2024-01-27T16:20:12.764Z,102050.66
2024-01-27T16:25:15.120Z,102046.44
2024-01-27T16:30:17.384Z,102065.59
2024-01-27T16:35:20.217Z,102062.31
2024-01-27T16:40:22.513Z,102071.22
2024-01-27T16:45:24.223Z,102072.25
2024-01-27T16:50:25.895Z,102068.97
2024-01-27T16:55:27.621Z,102073.38
2024-01-27T17:00:29.336Z,102082.94
2024-01-27T17:05:30.965Z,102084.97
2024-01-27T17:10:32.766Z,102094.91
2024-01-27T17:15:35.769Z,102093.81
2024-01-27T17:20:37.521Z,102102.47
2024-01-27T17:25:39.331Z,102095.22
2024-01-27T17:30:41.474Z,102108.03
2024-01-27T17:35:43.232Z,102111.72
2024-01-27T17:40:44.941Z,102112.13
2024-01-27T17:45:46.674Z,102119.06
2024-01-27T17:50:48.351Z,102110.31
2024-01-27T17:55:50.807Z,102113.75
2024-01-27T18:00:52.799Z,102121.88
2024-01-27T18:05:54.778Z,102133.06
2024-01-27T18:10:56.409Z,102126.06
2024-01-27T18:15:58.963Z,102134.25
2024-01-27T18:21:00.721Z,102136.34
2024-01-27T18:26:02.394Z,102131.59
2024-01-27T18:31:04.364Z,102141.03
2024-01-27T18:36:06.201Z,102144.44
2024-01-27T18:41:07.879Z,102135.84
2024-01-27T18:46:09.595Z,102138.56
2024-01-27T18:51:11.241Z,102152.97
2024-01-27T18:56:14.347Z,102153.50
2024-01-27T19:01:15.995Z,102165.69
2024-01-27T19:06:19.604Z,102156.34
2024-01-27T19:11:22.162Z,102160.84
2024-01-27T19:16:23.983Z,102154.38
2024-01-27T19:21:25.641Z,102158.63
2024-01-27T19:26:27.278Z,102168.03
2024-01-27T19:31:28.999Z,102171.31
2024-01-27T19:36:30.681Z,102190.63
2024-01-27T19:41:32.488Z,102198.59
2024-01-27T19:46:34.145Z,102198.75
2024-01-27T19:51:41.762Z,102222.00
2024-01-27T19:56:43.404Z,102214.19
2024-01-27T20:01:45.126Z,102203.50
2024-01-27T20:06:48.678Z,102218.38
2024-01-27T20:11:50.658Z,102229.25
2024-01-27T20:16:52.283Z,102221.53
2024-01-27T20:21:53.918Z,102220.47
2024-01-27T20:26:55.520Z,102220.53
2024-01-27T20:31:57.210Z,102224.81
2024-01-27T20:36:58.877Z,102217.19
2024-01-27T20:42:00.687Z,102220.38
2024-01-27T20:47:02.361Z,102231.38
2024-01-27T20:52:04.868Z,102223.97
2024-01-27T20:57:06.562Z,102235.09
2024-01-27T21:02:08.236Z,102234.59
2024-01-27T21:07:10.450Z,102237.34
2024-01-27T21:12:12.138Z,102245.59
2024-01-27T21:17:13.920Z,102243.88
2024-01-27T21:22:15.611Z,102233.16
2024-01-27T21:27:17.393Z,102245.28
2024-01-27T21:32:20.990Z,102242.09
2024-01-27T21:37:24.265Z,102239.78
2024-01-27T21:42:25.894Z,102244.34
2024-01-27T21:47:27.544Z,102242.06
2024-01-27T21:52:29.344Z,102243.94
2024-01-27T21:57:31.091Z,102238.91
2024-01-27T22:02:38.988Z,102250.34
2024-01-27T22:07:42.503Z,102238.13
2024-01-27T22:12:45.952Z,102238.91
2024-01-27T22:17:47.632Z,102254.97
2024-01-27T22:22:49.269Z,102248.94
2024-01-27T22:27:50.961Z,102249.09
2024-01-27T22:32:53.387Z,102245.31
2024-01-27T22:37:56.583Z,102253.16
2024-01-27T22:42:58.570Z,102264.19
2024-01-27T22:48:03.419Z,102246.25
2024-01-27T22:53:05.198Z,102239.81
2024-01-27T22:58:06.857Z,102236.44
2024-01-27T23:03:10.189Z,102234.53
2024-01-27T23:08:13.494Z,102233.84
2024-01-27T23:13:22.230Z,102222.50
2024-01-27T23:18:24.012Z,102207.81
2024-01-27T23:23:26.239Z,102207.91
2024-01-27T23:28:27.908Z,102222.59
2024-01-27T23:33:29.735Z,102217.00
2024-01-27T23:38:31.401Z,102218.88
2024-01-27T23:43:33.131Z,102216.91
2024-01-27T23:48:35.203Z,102216.53
2024-01-27T23:53:39.101Z,102215.31
2024-01-27T23:58:40.740Z,102228.16
